sensor_id;sensor_type;location;lat;lon;timestamp;pressure;altitude;pressure_sealevel;temperature;humidity
69257;BME280;56376;53.356;-1.748;2023-05-22T00:00:23;100240.78;;;10.49;78.45
69257;BME280;56376;53.356;-1.748;2023-05-22T00:02:48;100238.19;;;10.49;78.42
69257;BME280;56376;53.356;-1.748;2023-05-22T00:05:15;100245.97;;;10.51;78.15
69257;BME280;56376;53.356;-1.748;2023-05-22T00:07:42;100241.63;;;10.51;77.99
69257;BME280;56376;53.356;-1.748;2023-05-22T00:10:08;100234.66;;;10.50;78.13
69257;BME280;56376;53.356;-1.748;2023-05-22T00:12:34;100235.66;;;10.45;78.31
69257;BME280;56376;53.356;-1.748;2023-05-22T00:15:00;100232.31;;;10.39;78.75
69257;BME280;56376;53.356;-1.748;2023-05-22T00:17:25;100232.41;;;10.35;78.88
69257;BME280;56376;53.356;-1.748;2023-05-22T00:19:51;100232.53;;;10.30;78.97
69257;BME280;56376;53.356;-1.748;2023-05-22T00:22:19;100228.22;;;10.29;78.78
69257;BME280;56376;53.356;-1.748;2023-05-22T00:24:45;100223.00;;;10.28;78.38
69257;BME280;56376;53.356;-1.748;2023-05-22T00:27:10;100229.13;;;10.28;78.25
69257;BME280;56376;53.356;-1.748;2023-05-22T00:29:36;100220.44;;;10.26;77.97
69257;BME280;56376;53.356;-1.748;2023-05-22T00:32:01;100223.91;;;10.28;77.68
69257;BME280;56376;53.356;-1.748;2023-05-22T00:34:26;100216.16;;;10.22;78.19
69257;BME280;56376;53.356;-1.748;2023-05-22T00:36:52;100227.59;;;10.18;78.94
69257;BME280;56376;53.356;-1.748;2023-05-22T00:39:17;100212.22;;;10.06;79.67
69257;BME280;56376;53.356;-1.748;2023-05-22T00:41:43;100223.59;;;10.02;79.97
69257;BME280;56376;53.356;-1.748;2023-05-22T00:44:08;100217.66;;;9.95;79.81
69257;BME280;56376;53.356;-1.748;2023-05-22T00:46:34;100220.38;;;9.90;80.23
69257;BME280;56376;53.356;-1.748;2023-05-22T00:49:00;100214.50;;;9.81;80.33
69257;BME280;56376;53.356;-1.748;2023-05-22T00:51:26;100209.41;;;9.76;80.55
69257;BME280;56376;53.356;-1.748;2023-05-22T00:53:52;100219.06;;;9.71;80.92
69257;BME280;56376;53.356;-1.748;2023-05-22T00:56:19;100208.72;;;9.66;81.05
69257;BME280;56376;53.356;-1.748;2023-05-22T00:58:46;100213.97;;;9.65;81.00
69257;BME280;56376;53.356;-1.748;2023-05-22T01:01:11;100213.22;;;9.60;81.30
69257;BME280;56376;53.356;-1.748;2023-05-22T01:03:38;100207.22;;;9.56;81.54
69257;BME280;56376;53.356;-1.748;2023-05-22T01:06:10;100198.63;;;9.51;81.54
69257;BME280;56376;53.356;-1.748;2023-05-22T01:08:36;100198.69;;;9.48;81.40
69257;BME280;56376;53.356;-1.748;2023-05-22T01:11:09;100198.78;;;9.43;81.46
69257;BME280;56376;53.356;-1.748;2023-05-22T01:14:02;100195.44;;;9.38;81.31
69257;BME280;56376;53.356;-1.748;2023-05-22T01:16:44;100193.81;;;9.32;80.80
69257;BME280;56376;53.356;-1.748;2023-05-22T01:19:28;100188.69;;;9.26;80.94
69257;BME280;56376;53.356;-1.748;2023-05-22T01:28:29;100189.91;;;9.10;81.77
69257;BME280;56376;53.356;-1.748;2023-05-22T01:31:04;100182.13;;;9.08;81.75
69257;BME280;56376;53.356;-1.748;2023-05-22T01:33:35;100174.44;;;9.02;81.86
69257;BME280;56376;53.356;-1.748;2023-05-22T01:36:06;100173.66;;;8.97;82.30
69257;BME280;56376;53.356;-1.748;2023-05-22T01:38:33;100175.38;;;8.97;82.70
69257;BME280;56376;53.356;-1.748;2023-05-22T01:40:59;100166.88;;;8.88;82.78
69257;BME280;56376;53.356;-1.748;2023-05-22T01:43:25;100175.66;;;8.84;83.60
69257;BME280;56376;53.356;-1.748;2023-05-22T01:45:51;100168.78;;;8.79;83.65
69257;BME280;56376;53.356;-1.748;2023-05-22T01:48:17;100167.09;;;8.76;83.87
69257;BME280;56376;53.356;-1.748;2023-05-22T01:50:42;100161.94;;;8.73;83.36
69257;BME280;56376;53.356;-1.748;2023-05-22T01:53:56;100167.19;;;8.72;83.72
69257;BME280;56376;53.356;-1.748;2023-05-22T01:56:15;100174.19;;;8.68;84.06
69257;BME280;56376;53.356;-1.748;2023-05-22T01:59:06;100167.31;;;8.64;84.20
69257;BME280;56376;53.356;-1.748;2023-05-22T02:01:35;100167.38;;;8.62;84.93
69257;BME280;56376;53.356;-1.748;2023-05-22T02:04:02;100163.94;;;8.59;85.51
69257;BME280;56376;53.356;-1.748;2023-05-22T02:06:30;100169.97;;;8.61;85.19
69257;BME280;56376;53.356;-1.748;2023-05-22T02:08:58;100157.03;;;8.58;85.28
69257;BME280;56376;53.356;-1.748;2023-05-22T02:11:25;100160.53;;;8.55;85.06
69257;BME280;56376;53.356;-1.748;2023-05-22T02:13:52;100165.75;;;8.55;85.26
69257;BME280;56376;53.356;-1.748;2023-05-22T02:16:18;100159.78;;;8.50;85.32
69257;BME280;56376;53.356;-1.748;2023-05-22T02:18:45;100156.34;;;8.47;85.57
69257;BME280;56376;53.356;-1.748;2023-05-22T02:21:11;100166.88;;;8.40;85.72
69257;BME280;56376;53.356;-1.748;2023-05-22T02:23:36;100151.25;;;8.39;85.81
69257;BME280;56376;53.356;-1.748;2023-05-22T02:26:03;100156.50;;;8.36;85.98
69257;BME280;56376;53.356;-1.748;2023-05-22T02:28:29;100156.56;;;8.33;85.83
69257;BME280;56376;53.356;-1.748;2023-05-22T02:30:54;100157.47;;;8.30;85.65
69257;BME280;56376;53.356;-1.748;2023-05-22T02:33:20;100155.78;;;8.29;86.10
69257;BME280;56376;53.356;-1.748;2023-05-22T02:35:45;100151.47;;;8.27;85.43
69257;BME280;56376;53.356;-1.748;2023-05-22T02:38:11;100155.84;;;8.24;85.23
69257;BME280;56376;53.356;-1.748;2023-05-22T02:40:36;100161.97;;;8.20;85.39
69257;BME280;56376;53.356;-1.748;2023-05-22T02:43:02;100166.25;;;8.23;85.23
69257;BME280;56376;53.356;-1.748;2023-05-22T02:45:27;100163.72;;;8.21;85.40
69257;BME280;56376;53.356;-1.748;2023-05-22T02:47:53;100163.72;;;8.18;85.33
69257;BME280;56376;53.356;-1.748;2023-05-22T02:50:18;100154.22;;;8.17;85.34
69257;BME280;56376;53.356;-1.748;2023-05-22T02:52:43;100167.25;;;8.16;85.63
69257;BME280;56376;53.356;-1.748;2023-05-22T02:55:09;100162.09;;;8.14;86.20
69257;BME280;56376;53.356;-1.748;2023-05-22T02:57:35;100153.44;;;8.12;86.29
69257;BME280;56376;53.356;-1.748;2023-05-22T03:00:00;100150.00;;;8.10;86.52
69257;BME280;56376;53.356;-1.748;2023-05-22T03:02:25;100155.25;;;8.07;86.45
69257;BME280;56376;53.356;-1.748;2023-05-22T03:04:52;100145.75;;;8.05;87.21
69257;BME280;56376;53.356;-1.748;2023-05-22T03:07:18;100158.84;;;8.00;87.29
69257;BME280;56376;53.356;-1.748;2023-05-22T03:09:45;100160.63;;;7.96;87.60
69257;BME280;56376;53.356;-1.748;2023-05-22T03:12:11;100151.94;;;7.96;87.81
69257;BME280;56376;53.356;-1.748;2023-05-22T03:14:36;100159.81;;;7.93;88.24
69257;BME280;56376;53.356;-1.748;2023-05-22T03:17:01;100154.66;;;7.91;87.94
69257;BME280;56376;53.356;-1.748;2023-05-22T03:19:27;100148.63;;;7.88;88.19
69257;BME280;56376;53.356;-1.748;2023-05-22T03:21:53;100146.00;;;7.88;88.75
69257;BME280;56376;53.356;-1.748;2023-05-22T03:24:18;100144.28;;;7.88;89.01
69257;BME280;56376;53.356;-1.748;2023-05-22T03:26:44;100144.28;;;7.88;89.26
69257;BME280;56376;53.356;-1.748;2023-05-22T03:29:09;100146.84;;;7.90;89.53
69257;BME280;56376;53.356;-1.748;2023-05-22T03:31:35;100136.47;;;7.88;90.17
69257;BME280;56376;53.356;-1.748;2023-05-22T03:34:00;100139.06;;;7.88;90.49
69257;BME280;56376;53.356;-1.748;2023-05-22T03:36:27;100133.88;;;7.88;90.79
69257;BME280;56376;53.356;-1.748;2023-05-22T03:38:52;100141.66;;;7.90;91.19
69257;BME280;56376;53.356;-1.748;2023-05-22T03:41:18;100146.84;;;7.90;91.71
69257;BME280;56376;53.356;-1.748;2023-05-22T03:43:45;100136.44;;;7.90;92.18
69257;BME280;56376;53.356;-1.748;2023-05-22T03:46:10;100135.56;;;7.91;92.27
69257;BME280;56376;53.356;-1.748;2023-05-22T03:48:36;100126.03;;;7.90;92.63
69257;BME280;56376;53.356;-1.748;2023-05-22T03:51:02;100139.00;;;7.93;93.19
69257;BME280;56376;53.356;-1.748;2023-05-22T03:53:28;100131.19;;;7.93;93.45
69257;BME280;56376;53.356;-1.748;2023-05-22T03:55:53;100128.53;;;7.96;93.71
69257;BME280;56376;53.356;-1.748;2023-05-22T03:58:19;100129.44;;;7.95;93.51
69257;BME280;56376;53.356;-1.748;2023-05-22T04:00:44;100136.38;;;7.94;93.81
69257;BME280;56376;53.356;-1.748;2023-05-22T04:03:10;100132.03;;;7.93;93.74
69257;BME280;56376;53.356;-1.748;2023-05-22T04:05:40;100139.03;;;7.91;93.94
69257;BME280;56376;53.356;-1.748;2023-05-22T04:08:05;100141.59;;;7.93;94.02
69257;BME280;56376;53.356;-1.748;2023-05-22T04:10:30;100133.00;;;7.89;93.53
69257;BME280;56376;53.356;-1.748;2023-05-22T04:12:56;100132.16;;;7.86;93.16
69257;BME280;56376;53.356;-1.748;2023-05-22T04:15:21;100128.72;;;7.85;92.94
69257;BME280;56376;53.356;-1.748;2023-05-22T04:17:48;100125.22;;;7.88;93.22
69257;BME280;56376;53.356;-1.748;2023-05-22T04:20:14;100136.47;;;7.88;92.82
69257;BME280;56376;53.356;-1.748;2023-05-22T04:22:39;100138.22;;;7.88;92.75
69257;BME280;56376;53.356;-1.748;2023-05-22T04:25:05;100143.41;;;7.88;93.39
69257;BME280;56376;53.356;-1.748;2023-05-22T04:27:31;100134.75;;;7.89;93.73
69257;BME280;56376;53.356;-1.748;2023-05-22T04:29:58;100139.09;;;7.87;94.04
69257;BME280;56376;53.356;-1.748;2023-05-22T04:32:26;100145.19;;;7.86;94.68
69257;BME280;56376;53.356;-1.748;2023-05-22T04:34:54;100147.78;;;7.86;95.23
69257;BME280;56376;53.356;-1.748;2023-05-22T04:37:22;100148.66;;;7.85;95.75
69257;BME280;56376;53.356;-1.748;2023-05-22T04:39:48;100149.53;;;7.85;95.77
69257;BME280;56376;53.356;-1.748;2023-05-22T04:42:17;100150.38;;;7.86;96.70
69257;BME280;56376;53.356;-1.748;2023-05-22T04:44:43;100146.06;;;7.85;96.30
69257;BME280;56376;53.356;-1.748;2023-05-22T04:47:09;100150.38;;;7.87;96.50
69257;BME280;56376;53.356;-1.748;2023-05-22T04:49:41;100140.75;;;7.92;96.11
69257;BME280;56376;53.356;-1.748;2023-05-22T04:52:07;100147.66;;;7.95;96.44
69257;BME280;56376;53.356;-1.748;2023-05-22T04:54:35;100145.84;;;7.98;96.42
69257;BME280;56376;53.356;-1.748;2023-05-22T04:57:01;100148.34;;;8.05;96.50
69257;BME280;56376;53.356;-1.748;2023-05-22T04:59:35;100149.19;;;8.07;96.18
69257;BME280;56376;53.356;-1.748;2023-05-22T05:02:06;100150.91;;;8.08;96.73
69257;BME280;56376;53.356;-1.748;2023-05-22T05:04:32;100156.91;;;8.11;97.43
69257;BME280;56376;53.356;-1.748;2023-05-22T05:06:57;100151.69;;;8.13;98.24
69257;BME280;56376;53.356;-1.748;2023-05-22T05:09:23;100149.94;;;8.13;99.34
69257;BME280;56376;53.356;-1.748;2023-05-22T05:11:49;100151.69;;;8.14;99.51
69257;BME280;56376;53.356;-1.748;2023-05-22T05:14:15;100153.31;;;8.18;100.00
69257;BME280;56376;53.356;-1.748;2023-05-22T05:16:41;100155.06;;;8.18;100.00
69257;BME280;56376;53.356;-1.748;2023-05-22T05:19:06;100159.41;;;8.19;100.00
69257;BME280;56376;53.356;-1.748;2023-05-22T05:21:31;100160.28;;;8.16;100.00
69257;BME280;56376;53.356;-1.748;2023-05-22T05:23:57;100159.44;;;8.17;100.00
69257;BME280;56376;53.356;-1.748;2023-05-22T05:26:22;100152.47;;;8.18;100.00
69257;BME280;56376;53.356;-1.748;2023-05-22T05:28:49;100154.09;;;8.27;100.00
69257;BME280;56376;53.356;-1.748;2023-05-22T05:31:16;100148.75;;;8.34;100.00
69257;BME280;56376;53.356;-1.748;2023-05-22T05:33:41;100148.53;;;8.47;100.00
69257;BME280;56376;53.356;-1.748;2023-05-22T05:36:07;100153.59;;;8.56;100.00
69257;BME280;56376;53.356;-1.748;2023-05-22T05:38:32;100150.84;;;8.63;100.00
69257;BME280;56376;53.356;-1.748;2023-05-22T05:40:58;100151.56;;;8.72;100.00
69257;BME280;56376;53.356;-1.748;2023-05-22T05:43:23;100150.56;;;8.79;100.00
69257;BME280;56376;53.356;-1.748;2023-05-22T05:45:49;100154.75;;;8.86;100.00
69257;BME280;56376;53.356;-1.748;2023-05-22T05:48:15;100150.25;;;8.94;100.00
69257;BME280;56376;53.356;-1.748;2023-05-22T05:50:40;100143.16;;;9.02;100.00
69257;BME280;56376;53.356;-1.748;2023-05-22T05:53:06;100149.91;;;9.13;100.00
69257;BME280;56376;53.356;-1.748;2023-05-22T05:55:32;100150.56;;;9.22;100.00
69257;BME280;56376;53.356;-1.748;2023-05-22T05:57:57;100142.53;;;9.33;100.00
69257;BME280;56376;53.356;-1.748;2023-05-22T06:00:22;100137.09;;;9.42;100.00
69257;BME280;56376;53.356;-1.748;2023-05-22T06:02:48;100137.63;;;9.58;100.00
69257;BME280;56376;53.356;-1.748;2023-05-22T06:05:13;100139.91;;;9.72;100.00
69257;BME280;56376;53.356;-1.748;2023-05-22T06:07:41;100133.47;;;9.87;100.00
69257;BME280;56376;53.356;-1.748;2023-05-22T06:10:09;100144.28;;;10.07;100.00
69257;BME280;56376;53.356;-1.748;2023-05-22T06:12:35;100145.59;;;10.25;100.00
69257;BME280;56376;53.356;-1.748;2023-05-22T06:15:02;100139.06;;;10.43;100.00
69257;BME280;56376;53.356;-1.748;2023-05-22T06:17:28;100137.81;;;10.58;100.00
69257;BME280;56376;53.356;-1.748;2023-05-22T06:19:54;100144.38;;;10.73;100.00
69257;BME280;56376;53.356;-1.748;2023-05-22T06:22:19;100143.94;;;10.88;100.00
69257;BME280;56376;53.356;-1.748;2023-05-22T06:24:45;100147.91;;;11.03;97.32
69257;BME280;56376;53.356;-1.748;2023-05-22T06:27:10;100151.81;;;11.19;91.31
69257;BME280;56376;53.356;-1.748;2023-05-22T06:29:36;100159.13;;;11.36;87.40
69257;BME280;56376;53.356;-1.748;2023-05-22T06:32:01;100144.75;;;11.51;86.13
69257;BME280;56376;53.356;-1.748;2023-05-22T06:34:27;100149.50;;;11.66;85.25
69257;BME280;56376;53.356;-1.748;2023-05-22T06:36:53;100149.81;;;11.85;82.86
69257;BME280;56376;53.356;-1.748;2023-05-22T06:39:19;100145.91;;;11.99;80.61
69257;BME280;56376;53.356;-1.748;2023-05-22T06:41:45;100151.53;;;12.15;77.11
69257;BME280;56376;53.356;-1.748;2023-05-22T06:44:10;100151.09;;;12.27;76.92
69257;BME280;56376;53.356;-1.748;2023-05-22T06:46:37;100155.03;;;12.40;76.12
69257;BME280;56376;53.356;-1.748;2023-05-22T06:49:02;100153.00;;;12.48;75.03
69257;BME280;56376;53.356;-1.748;2023-05-22T06:51:28;100158.72;;;12.60;73.70
69257;BME280;56376;53.356;-1.748;2023-05-22T06:53:53;100160.88;;;12.73;69.14
69257;BME280;56376;53.356;-1.748;2023-05-22T06:56:19;100154.34;;;12.85;68.35
69257;BME280;56376;53.356;-1.748;2023-05-22T06:58:44;100158.97;;;13.02;68.31
69257;BME280;56376;53.356;-1.748;2023-05-22T07:01:10;100155.75;;;13.19;68.54
69257;BME280;56376;53.356;-1.748;2023-05-22T07:03:35;100156.00;;;13.36;67.47
69257;BME280;56376;53.356;-1.748;2023-05-22T07:06:01;100150.22;;;13.50;66.95
69257;BME280;56376;53.356;-1.748;2023-05-22T07:08:27;100147.97;;;13.63;64.96
69257;BME280;56376;53.356;-1.748;2023-05-22T07:10:52;100143.88;;;13.78;63.86
69257;BME280;56376;53.356;-1.748;2023-05-22T07:13:18;100156.41;;;13.93;64.57
69257;BME280;56376;53.356;-1.748;2023-05-22T07:15:43;100147.44;;;13.99;59.81
69257;BME280;56376;53.356;-1.748;2023-05-22T07:18:08;100153.75;;;14.15;61.81
69257;BME280;56376;53.356;-1.748;2023-05-22T07:20:36;100160.47;;;14.22;59.68
69257;BME280;56376;53.356;-1.748;2023-05-22T07:23:01;100163.50;;;14.34;60.36
69257;BME280;56376;53.356;-1.748;2023-05-22T07:25:27;100159.50;;;14.45;58.27
69257;BME280;56376;53.356;-1.748;2023-05-22T07:27:53;100170.34;;;14.60;59.33
69257;BME280;56376;53.356;-1.748;2023-05-22T07:30:19;100168.19;;;14.69;56.01
69257;BME280;56376;53.356;-1.748;2023-05-22T07:32:45;100172.16;;;14.78;56.95
69257;BME280;56376;53.356;-1.748;2023-05-22T07:35:11;100172.75;;;14.85;56.32
69257;BME280;56376;53.356;-1.748;2023-05-22T07:37:36;100171.69;;;14.89;55.04
69257;BME280;56376;53.356;-1.748;2023-05-22T07:40:03;100177.09;;;14.86;54.68
69257;BME280;56376;53.356;-1.748;2023-05-22T07:42:32;100172.56;;;14.89;54.33
69257;BME280;56376;53.356;-1.748;2023-05-22T07:44:59;100176.91;;;14.90;53.14
69257;BME280;56376;53.356;-1.748;2023-05-22T07:47:25;100178.53;;;14.93;52.92
69257;BME280;56376;53.356;-1.748;2023-05-22T07:49:50;100176.75;;;14.93;52.35
69257;BME280;56376;53.356;-1.748;2023-05-22T07:52:15;100183.66;;;14.96;50.89
69257;BME280;56376;53.356;-1.748;2023-05-22T07:54:41;100181.81;;;14.98;51.81
69257;BME280;56376;53.356;-1.748;2023-05-22T07:57:06;100177.25;;;15.02;49.72
69257;BME280;56376;53.356;-1.748;2023-05-22T07:59:32;100177.25;;;15.02;49.85
69257;BME280;56376;53.356;-1.748;2023-05-22T08:01:57;100176.94;;;15.09;45.66
69257;BME280;56376;53.356;-1.748;2023-05-22T08:04:23;100177.72;;;15.11;46.34
69257;BME280;56376;53.356;-1.748;2023-05-22T08:06:48;100180.88;;;15.20;46.83
69257;BME280;56376;53.356;-1.748;2023-05-22T08:09:14;100178.75;;;15.28;45.06
69257;BME280;56376;53.356;-1.748;2023-05-22T08:11:40;100188.97;;;15.34;42.21
69257;BME280;56376;53.356;-1.748;2023-05-22T08:14:06;100189.63;;;15.39;42.63
69257;BME280;56376;53.356;-1.748;2023-05-22T08:16:32;100183.88;;;15.50;43.23
69257;BME280;56376;53.356;-1.748;2023-05-22T08:18:58;100185.06;;;15.62;43.01
69257;BME280;56376;53.356;-1.748;2023-05-22T08:21:23;100181.00;;;15.75;43.23
69257;BME280;56376;53.356;-1.748;2023-05-22T08:23:48;100176.75;;;15.90;40.98
69257;BME280;56376;53.356;-1.748;2023-05-22T08:26:14;100196.75;;;16.13;41.03
69257;BME280;56376;53.356;-1.748;2023-05-22T08:28:40;100187.06;;;16.31;40.97
69257;BME280;56376;53.356;-1.748;2023-05-22T08:31:09;100195.38;;;16.40;39.72
69257;BME280;56376;53.356;-1.748;2023-05-22T08:33:35;100198.88;;;16.41;39.47
69257;BME280;56376;53.356;-1.748;2023-05-22T08:36:00;100191.97;;;16.38;38.00
69257;BME280;56376;53.356;-1.748;2023-05-22T08:38:25;100197.31;;;16.37;35.40
69257;BME280;56376;53.356;-1.748;2023-05-22T08:40:52;100194.44;;;16.41;34.83
69257;BME280;56376;53.356;-1.748;2023-05-22T08:43:19;100197.25;;;16.38;35.24
69257;BME280;56376;53.356;-1.748;2023-05-22T08:45:48;100193.66;;;16.39;38.51
69257;BME280;56376;53.356;-1.748;2023-05-22T08:48:17;100196.41;;;16.38;39.58
69257;BME280;56376;53.356;-1.748;2023-05-22T08:50:45;100203.22;;;16.42;39.93
69257;BME280;56376;53.356;-1.748;2023-05-22T08:53:14;100203.13;;;16.43;39.47
69257;BME280;56376;53.356;-1.748;2023-05-22T08:55:40;100193.28;;;16.47;41.68
69257;BME280;56376;53.356;-1.748;2023-05-22T08:58:07;100202.81;;;16.50;42.55
69257;BME280;56376;53.356;-1.748;2023-05-22T09:00:33;100193.06;;;16.52;41.16
69257;BME280;56376;53.356;-1.748;2023-05-22T09:02:58;100195.69;;;16.52;42.26
69257;BME280;56376;53.356;-1.748;2023-05-22T09:05:24;100193.00;;;16.53;42.23
69257;BME280;56376;53.356;-1.748;2023-05-22T09:07:53;100193.69;;;16.57;43.02
69257;BME280;56376;53.356;-1.748;2023-05-22T09:10:18;100193.28;;;16.64;43.32
69257;BME280;56376;53.356;-1.748;2023-05-22T09:13:03;100199.19;;;16.70;44.56
69257;BME280;56376;53.356;-1.748;2023-05-22T09:15:30;100199.78;;;16.75;46.43
69257;BME280;56376;53.356;-1.748;2023-05-22T09:17:56;100198.88;;;16.76;45.47
69257;BME280;56376;53.356;-1.748;2023-05-22T09:20:22;100200.44;;;16.80;45.20
69257;BME280;56376;53.356;-1.748;2023-05-22T09:22:48;100207.34;;;16.82;46.92
69257;BME280;56376;53.356;-1.748;2023-05-22T09:25:21;100203.63;;;16.86;47.67
69257;BME280;56376;53.356;-1.748;2023-05-22T09:27:47;100202.53;;;16.91;47.94
69257;BME280;56376;53.356;-1.748;2023-05-22T09:30:17;100207.78;;;16.91;50.99
69257;BME280;56376;53.356;-1.748;2023-05-22T09:32:44;100215.72;;;16.91;50.33
69257;BME280;56376;53.356;-1.748;2023-05-22T09:35:11;100216.50;;;16.93;49.09
69257;BME280;56376;53.356;-1.748;2023-05-22T09:37:38;100210.03;;;16.98;50.02
69257;BME280;56376;53.356;-1.748;2023-05-22T09:40:09;100207.34;;;17.00;49.67
69257;BME280;56376;53.356;-1.748;2023-05-22T09:42:35;100206.25;;;17.04;51.31
69257;BME280;56376;53.356;-1.748;2023-05-22T09:45:05;100197.22;;;17.08;51.52
69257;BME280;56376;53.356;-1.748;2023-05-22T09:47:32;100196.81;;;17.16;50.31
69257;BME280;56376;53.356;-1.748;2023-05-22T09:50:04;100194.78;;;17.21;49.13
69257;BME280;56376;53.356;-1.748;2023-05-22T09:52:32;100194.47;;;17.27;49.02
69257;BME280;56376;53.356;-1.748;2023-05-22T09:55:01;100191.34;;;17.36;49.63
69257;BME280;56376;53.356;-1.748;2023-05-22T09:57:30;100188.44;;;17.41;49.37
69257;BME280;56376;53.356;-1.748;2023-05-22T09:59:57;100182.84;;;17.47;49.63
69257;BME280;56376;53.356;-1.748;2023-05-22T10:02:25;100179.78;;;17.55;49.69
69257;BME280;56376;53.356;-1.748;2023-05-22T10:04:51;100180.78;;;17.68;50.23
69257;BME280;56376;53.356;-1.748;2023-05-22T10:07:27;100173.22;;;17.78;49.27
69257;BME280;56376;53.356;-1.748;2023-05-22T10:10:06;100174.34;;;17.89;50.06
69257;BME280;56376;53.356;-1.748;2023-05-22T10:12:38;100173.56;;;18.03;51.32
69257;BME280;56376;53.356;-1.748;2023-05-22T10:15:06;100182.59;;;18.15;50.66
69257;BME280;56376;53.356;-1.748;2023-05-22T10:17:33;100162.94;;;18.19;49.30
69257;BME280;56376;53.356;-1.748;2023-05-22T10:20:00;100160.75;;;18.27;49.62
69257;BME280;56376;53.356;-1.748;2023-05-22T10:22:27;100166.16;;;18.40;51.44
69257;BME280;56376;53.356;-1.748;2023-05-22T10:24:53;100165.72;;;18.48;50.80
69257;BME280;56376;53.356;-1.748;2023-05-22T10:27:19;100168.56;;;18.59;49.97
69257;BME280;56376;53.356;-1.748;2023-05-22T10:30:25;100171.50;;;18.69;50.29
69257;BME280;56376;53.356;-1.748;2023-05-22T10:32:58;100175.53;;;18.76;48.41
69257;BME280;56376;53.356;-1.748;2023-05-22T10:35:47;100180.56;;;18.80;48.59
69257;BME280;56376;53.356;-1.748;2023-05-22T10:41:03;100167.88;;;18.86;48.86
69257;BME280;56376;53.356;-1.748;2023-05-22T10:43:29;100169.22;;;18.93;51.68
69257;BME280;56376;53.356;-1.748;2023-05-22T10:46:07;100164.50;;;18.98;50.68
69257;BME280;56376;53.356;-1.748;2023-05-22T10:48:43;100165.91;;;19.03;50.69
69257;BME280;56376;53.356;-1.748;2023-05-22T10:51:18;100158.16;;;19.15;52.11
69257;BME280;56376;53.356;-1.748;2023-05-22T10:53:44;100171.22;;;19.18;50.57
69257;BME280;56376;53.356;-1.748;2023-05-22T10:56:14;100165.44;;;19.26;48.57
69257;BME280;56376;53.356;-1.748;2023-05-22T10:58:44;100163.38;;;19.31;48.50
69257;BME280;56376;53.356;-1.748;2023-05-22T11:01:15;100156.25;;;19.31;48.49
69257;BME280;56376;53.356;-1.748;2023-05-22T11:06:39;100160.31;;;19.37;46.43
69257;BME280;56376;53.356;-1.748;2023-05-22T11:09:17;100173.06;;;19.44;47.41
69257;BME280;56376;53.356;-1.748;2023-05-22T11:11:44;100160.94;;;19.55;48.33
69257;BME280;56376;53.356;-1.748;2023-05-22T11:14:11;100157.47;;;19.69;48.29
69257;BME280;56376;53.356;-1.748;2023-05-22T11:16:37;100158.78;;;19.76;46.91
69257;BME280;56376;53.356;-1.748;2023-05-22T11:19:07;100151.06;;;19.85;49.45
69257;BME280;56376;53.356;-1.748;2023-05-22T11:21:42;100153.13;;;19.95;47.98
69257;BME280;56376;53.356;-1.748;2023-05-22T11:24:08;100154.81;;;19.96;48.55
69257;BME280;56376;53.356;-1.748;2023-05-22T11:26:34;100148.06;;;20.04;50.20
69257;BME280;56376;53.356;-1.748;2023-05-22T11:29:00;100137.91;;;20.11;50.17
69257;BME280;56376;53.356;-1.748;2023-05-22T11:31:26;100154.69;;;20.24;50.19
69257;BME280;56376;53.356;-1.748;2023-05-22T11:33:53;100155.34;;;20.28;47.17
69257;BME280;56376;53.356;-1.748;2023-05-22T11:36:19;100145.56;;;20.28;46.22
69257;BME280;56376;53.356;-1.748;2023-05-22T11:38:45;100152.91;;;20.25;45.53
69257;BME280;56376;53.356;-1.748;2023-05-22T11:41:10;100141.84;;;20.18;45.83
69257;BME280;56376;53.356;-1.748;2023-05-22T11:43:37;100147.50;;;20.26;46.36
69257;BME280;56376;53.356;-1.748;2023-05-22T11:46:06;100132.63;;;20.24;46.53
69257;BME280;56376;53.356;-1.748;2023-05-22T11:48:33;100134.97;;;20.28;46.39
69257;BME280;56376;53.356;-1.748;2023-05-22T11:51:00;100143.28;;;20.37;45.89
69257;BME280;56376;53.356;-1.748;2023-05-22T11:53:30;100140.41;;;20.40;48.37
69257;BME280;56376;53.356;-1.748;2023-05-22T11:56:03;100137.53;;;20.43;46.59
69257;BME280;56376;53.356;-1.748;2023-05-22T11:58:30;100140.72;;;20.48;46.29
69257;BME280;56376;53.356;-1.748;2023-05-22T12:00:59;100136.75;;;20.55;45.40
69257;BME280;56376;53.356;-1.748;2023-05-22T12:03:24;100130.13;;;20.48;44.25
69257;BME280;56376;53.356;-1.748;2023-05-22T12:05:50;100136.28;;;20.48;44.30
69257;BME280;56376;53.356;-1.748;2023-05-22T12:08:16;100141.22;;;20.55;45.51
69257;BME280;56376;53.356;-1.748;2023-05-22T12:11:03;100136.75;;;20.68;46.21
69257;BME280;56376;53.356;-1.748;2023-05-22T12:13:29;100140.59;;;20.77;46.15
69257;BME280;56376;53.356;-1.748;2023-05-22T12:15:59;100136.44;;;20.85;47.23
69257;BME280;56376;53.356;-1.748;2023-05-22T12:18:25;100132.94;;;20.85;45.24
69257;BME280;56376;53.356;-1.748;2023-05-22T12:20:53;100134.09;;;20.93;45.60
69257;BME280;56376;53.356;-1.748;2023-05-22T12:23:22;100131.44;;;20.93;44.46
69257;BME280;56376;53.356;-1.748;2023-05-22T12:25:56;100121.25;;;21.00;46.00
69257;BME280;56376;53.356;-1.748;2023-05-22T12:28:21;100129.31;;;20.99;46.42
69257;BME280;56376;53.356;-1.748;2023-05-22T12:30:51;100127.69;;;21.09;45.38
69257;BME280;56376;53.356;-1.748;2023-05-22T12:33:17;100136.84;;;21.17;46.45
69257;BME280;56376;53.356;-1.748;2023-05-22T12:35:44;100125.91;;;21.22;45.00
69257;BME280;56376;53.356;-1.748;2023-05-22T12:38:10;100127.16;;;21.29;44.40
69257;BME280;56376;53.356;-1.748;2023-05-22T12:40:37;100125.66;;;21.38;46.33
69257;BME280;56376;53.356;-1.748;2023-05-22T12:43:03;100118.44;;;21.40;46.41
69257;BME280;56376;53.356;-1.748;2023-05-22T12:45:28;100123.44;;;21.45;46.26
69257;BME280;56376;53.356;-1.748;2023-05-22T12:47:53;100113.41;;;21.48;44.65
69257;BME280;56376;53.356;-1.748;2023-05-22T12:50:19;100110.81;;;21.59;44.95
69257;BME280;56376;53.356;-1.748;2023-05-22T12:52:44;100112.56;;;21.72;44.81
69257;BME280;56376;53.356;-1.748;2023-05-22T12:55:10;100115.06;;;21.86;44.29